sensor_id;sensor_type;location;lat;lon;timestamp;temperature;humidity
60293;DHT22;52402;52.670;6.750;2024-02-16T00:02:00;10.30;99.90
60293;DHT22;52402;52.670;6.750;2024-02-16T00:04:26;10.30;99.90
60293;DHT22;52402;52.670;6.750;2024-02-16T00:06:52;10.30;99.90
60293;DHT22;52402;52.670;6.750;2024-02-16T00:09:18;10.40;99.90
60293;DHT22;52402;52.670;6.750;2024-02-16T00:11:44;10.40;99.90
60293;DHT22;52402;52.670;6.750;2024-02-16T00:14:10;10.50;99.90
60293;DHT22;52402;52.670;6.750;2024-02-16T00:16:35;10.50;99.90
60293;DHT22;52402;52.670;6.750;2024-02-16T00:19:01;10.60;99.90
60293;DHT22;52402;52.670;6.750;2024-02-16T00:21:27;10.60;99.90
60293;DHT22;52402;52.670;6.750;2024-02-16T00:23:52;10.70;99.90
60293;DHT22;52402;52.670;6.750;2024-02-16T00:26:18;10.70;99.90
60293;DHT22;52402;52.670;6.750;2024-02-16T00:28:44;10.70;99.90
60293;DHT22;52402;52.670;6.750;2024-02-16T00:31:10;10.70;99.90
60293;DHT22;52402;52.670;6.750;2024-02-16T00:33:36;10.80;99.90
60293;DHT22;52402;52.670;6.750;2024-02-16T00:36:02;10.70;99.90
60293;DHT22;52402;52.670;6.750;2024-02-16T00:38:28;10.80;99.90
60293;DHT22;52402;52.670;6.750;2024-02-16T00:40:54;10.70;99.90
60293;DHT22;52402;52.670;6.750;2024-02-16T00:43:19;10.70;99.90
60293;DHT22;52402;52.670;6.750;2024-02-16T00:45:45;10.70;99.90
60293;DHT22;52402;52.670;6.750;2024-02-16T00:48:11;10.70;99.90
60293;DHT22;52402;52.670;6.750;2024-02-16T00:50:37;10.70;99.90
60293;DHT22;52402;52.670;6.750;2024-02-16T00:53:03;10.80;99.90
60293;DHT22;52402;52.670;6.750;2024-02-16T00:55:29;10.70;99.90
60293;DHT22;52402;52.670;6.750;2024-02-16T00:57:55;10.80;99.90
60293;DHT22;52402;52.670;6.750;2024-02-16T01:00:21;10.70;99.90
60293;DHT22;52402;52.670;6.750;2024-02-16T01:02:49;10.70;99.90
60293;DHT22;52402;52.670;6.750;2024-02-16T01:05:15;10.70;99.90
60293;DHT22;52402;52.670;6.750;2024-02-16T01:07:43;10.80;99.90
60293;DHT22;52402;52.670;6.750;2024-02-16T01:10:10;10.80;99.90
60293;DHT22;52402;52.670;6.750;2024-02-16T01:12:35;10.80;99.90
60293;DHT22;52402;52.670;6.750;2024-02-16T01:15:01;10.80;99.90
60293;DHT22;52402;52.670;6.750;2024-02-16T01:17:26;10.80;99.90
60293;DHT22;52402;52.670;6.750;2024-02-16T01:19:52;10.80;99.90
60293;DHT22;52402;52.670;6.750;2024-02-16T01:22:18;10.70;99.90
60293;DHT22;52402;52.670;6.750;2024-02-16T01:24:44;10.70;99.90
60293;DHT22;52402;52.670;6.750;2024-02-16T01:27:09;10.70;99.90
60293;DHT22;52402;52.670;6.750;2024-02-16T01:29:36;10.70;99.90
60293;DHT22;52402;52.670;6.750;2024-02-16T01:32:02;10.60;99.90
60293;DHT22;52402;52.670;6.750;2024-02-16T01:34:28;10.60;99.90
60293;DHT22;52402;52.670;6.750;2024-02-16T01:36:56;10.60;99.90
60293;DHT22;52402;52.670;6.750;2024-02-16T01:39:21;10.50;99.90
60293;DHT22;52402;52.670;6.750;2024-02-16T01:41:47;10.50;99.90
60293;DHT22;52402;52.670;6.750;2024-02-16T01:44:13;10.50;99.90
60293;DHT22;52402;52.670;6.750;2024-02-16T01:46:42;10.50;99.90
60293;DHT22;52402;52.670;6.750;2024-02-16T01:49:08;10.50;99.90
60293;DHT22;52402;52.670;6.750;2024-02-16T01:51:35;10.50;99.90
60293;DHT22;52402;52.670;6.750;2024-02-16T01:54:01;10.50;99.90
60293;DHT22;52402;52.670;6.750;2024-02-16T01:56:27;10.50;99.90
60293;DHT22;52402;52.670;6.750;2024-02-16T01:58:53;10.50;99.90
60293;DHT22;52402;52.670;6.750;2024-02-16T02:01:19;10.50;99.90
60293;DHT22;52402;52.670;6.750;2024-02-16T02:03:44;10.50;99.90
60293;DHT22;52402;52.670;6.750;2024-02-16T02:06:10;10.50;99.90
60293;DHT22;52402;52.670;6.750;2024-02-16T02:08:35;10.60;99.90
60293;DHT22;52402;52.670;6.750;2024-02-16T02:11:01;10.60;99.90
60293;DHT22;52402;52.670;6.750;2024-02-16T02:13:27;10.60;99.90
60293;DHT22;52402;52.670;6.750;2024-02-16T02:15:54;10.80;99.90
60293;DHT22;52402;52.670;6.750;2024-02-16T02:18:20;10.70;99.90
60293;DHT22;52402;52.670;6.750;2024-02-16T02:20:46;10.80;99.90
60293;DHT22;52402;52.670;6.750;2024-02-16T02:23:11;10.80;99.90
60293;DHT22;52402;52.670;6.750;2024-02-16T02:25:37;10.80;99.90
60293;DHT22;52402;52.670;6.750;2024-02-16T02:28:03;10.90;99.90
60293;DHT22;52402;52.670;6.750;2024-02-16T02:30:29;10.90;99.90
60293;DHT22;52402;52.670;6.750;2024-02-16T02:32:54;10.90;99.90
60293;DHT22;52402;52.670;6.750;2024-02-16T02:35:20;10.90;99.90
60293;DHT22;52402;52.670;6.750;2024-02-16T02:37:45;11.00;99.90
60293;DHT22;52402;52.670;6.750;2024-02-16T02:40:11;10.90;99.90
60293;DHT22;52402;52.670;6.750;2024-02-16T02:42:37;10.90;99.90
60293;DHT22;52402;52.670;6.750;2024-02-16T02:45:04;10.80;99.90
60293;DHT22;52402;52.670;6.750;2024-02-16T02:47:31;10.80;99.90
60293;DHT22;52402;52.670;6.750;2024-02-16T02:49:58;10.90;99.90
60293;DHT22;52402;52.670;6.750;2024-02-16T02:52:24;10.90;99.90
60293;DHT22;52402;52.670;6.750;2024-02-16T02:54:50;10.90;99.90
60293;DHT22;52402;52.670;6.750;2024-02-16T02:57:15;10.80;99.90
60293;DHT22;52402;52.670;6.750;2024-02-16T02:59:41;10.80;99.90
60293;DHT22;52402;52.670;6.750;2024-02-16T03:02:07;10.70;99.90
60293;DHT22;52402;52.670;6.750;2024-02-16T03:04:34;10.80;99.90
60293;DHT22;52402;52.670;6.750;2024-02-16T03:07:00;10.80;99.90
60293;DHT22;52402;52.670;6.750;2024-02-16T03:09:26;10.80;99.90
60293;DHT22;52402;52.670;6.750;2024-02-16T03:11:51;10.80;99.90
60293;DHT22;52402;52.670;6.750;2024-02-16T03:14:18;10.80;99.90
60293;DHT22;52402;52.670;6.750;2024-02-16T03:16:45;10.80;99.90
60293;DHT22;52402;52.670;6.750;2024-02-16T03:19:10;10.80;99.90
60293;DHT22;52402;52.670;6.750;2024-02-16T03:21:36;10.80;99.90
60293;DHT22;52402;52.670;6.750;2024-02-16T03:24:02;10.80;99.90
60293;DHT22;52402;52.670;6.750;2024-02-16T03:26:29;10.80;99.90
60293;DHT22;52402;52.670;6.750;2024-02-16T03:28:59;10.80;99.90
60293;DHT22;52402;52.670;6.750;2024-02-16T03:31:25;10.80;99.90
60293;DHT22;52402;52.670;6.750;2024-02-16T03:33:51;10.80;99.90
60293;DHT22;52402;52.670;6.750;2024-02-16T03:36:18;10.80;99.90
60293;DHT22;52402;52.670;6.750;2024-02-16T03:38:48;10.70;99.90
60293;DHT22;52402;52.670;6.750;2024-02-16T03:41:21;10.70;99.90
60293;DHT22;52402;52.670;6.750;2024-02-16T03:43:47;10.70;99.90
60293;DHT22;52402;52.670;6.750;2024-02-16T03:46:13;10.80;99.90
60293;DHT22;52402;52.670;6.750;2024-02-16T03:48:39;10.80;99.90
60293;DHT22;52402;52.670;6.750;2024-02-16T03:51:05;10.80;99.90
60293;DHT22;52402;52.670;6.750;2024-02-16T03:53:31;10.80;99.90
60293;DHT22;52402;52.670;6.750;2024-02-16T03:55:57;10.80;99.90
60293;DHT22;52402;52.670;6.750;2024-02-16T03:58:23;10.90;99.90
60293;DHT22;52402;52.670;6.750;2024-02-16T04:00:49;10.90;99.90
60293;DHT22;52402;52.670;6.750;2024-02-16T04:03:15;10.90;99.90
60293;DHT22;52402;52.670;6.750;2024-02-16T04:05:40;10.90;99.90
60293;DHT22;52402;52.670;6.750;2024-02-16T04:08:06;10.90;99.90
60293;DHT22;52402;52.670;6.750;2024-02-16T04:10:33;10.90;99.90
60293;DHT22;52402;52.670;6.750;2024-02-16T04:12:58;10.90;99.90
60293;DHT22;52402;52.670;6.750;2024-02-16T04:15:24;10.90;99.90
60293;DHT22;52402;52.670;6.750;2024-02-16T04:17:50;10.90;99.90
60293;DHT22;52402;52.670;6.750;2024-02-16T04:20:16;10.90;99.90
60293;DHT22;52402;52.670;6.750;2024-02-16T04:22:42;10.90;99.90
60293;DHT22;52402;52.670;6.750;2024-02-16T04:25:08;10.90;99.90
60293;DHT22;52402;52.670;6.750;2024-02-16T04:27:34;10.90;99.90
60293;DHT22;52402;52.670;6.750;2024-02-16T04:30:00;10.90;99.90
60293;DHT22;52402;52.670;6.750;2024-02-16T04:32:26;10.90;99.90
60293;DHT22;52402;52.670;6.750;2024-02-16T04:34:52;10.80;99.90
60293;DHT22;52402;52.670;6.750;2024-02-16T04:37:18;10.80;99.90
60293;DHT22;52402;52.670;6.750;2024-02-16T04:39:44;10.80;99.90
60293;DHT22;52402;52.670;6.750;2024-02-16T04:42:10;10.80;99.90
60293;DHT22;52402;52.670;6.750;2024-02-16T04:44:39;10.80;99.90
60293;DHT22;52402;52.670;6.750;2024-02-16T04:47:05;10.80;99.90
60293;DHT22;52402;52.670;6.750;2024-02-16T04:49:31;10.80;99.90
60293;DHT22;52402;52.670;6.750;2024-02-16T04:51:56;10.70;99.90
60293;DHT22;52402;52.670;6.750;2024-02-16T04:54:22;10.70;99.90
60293;DHT22;52402;52.670;6.750;2024-02-16T04:56:48;10.70;99.90
60293;DHT22;52402;52.670;6.750;2024-02-16T04:59:14;10.70;99.90
60293;DHT22;52402;52.670;6.750;2024-02-16T05:01:40;10.60;99.90
60293;DHT22;52402;52.670;6.750;2024-02-16T05:04:06;10.60;99.90
60293;DHT22;52402;52.670;6.750;2024-02-16T05:06:32;10.60;99.90
60293;DHT22;52402;52.670;6.750;2024-02-16T05:08:58;10.60;99.90
60293;DHT22;52402;52.670;6.750;2024-02-16T05:11:24;10.60;99.90
60293;DHT22;52402;52.670;6.750;2024-02-16T05:13:50;10.60;99.90
60293;DHT22;52402;52.670;6.750;2024-02-16T05:16:16;10.70;99.90
60293;DHT22;52402;52.670;6.750;2024-02-16T05:18:42;10.60;99.90
60293;DHT22;52402;52.670;6.750;2024-02-16T05:21:07;10.70;99.90
60293;DHT22;52402;52.670;6.750;2024-02-16T05:23:33;10.80;99.90
60293;DHT22;52402;52.670;6.750;2024-02-16T05:25:59;10.70;99.90
60293;DHT22;52402;52.670;6.750;2024-02-16T05:28:24;10.80;99.90
60293;DHT22;52402;52.670;6.750;2024-02-16T05:30:50;10.80;99.90
60293;DHT22;52402;52.670;6.750;2024-02-16T05:33:16;10.80;99.90
60293;DHT22;52402;52.670;6.750;2024-02-16T05:35:41;10.80;99.90
60293;DHT22;52402;52.670;6.750;2024-02-16T05:38:10;10.80;99.90
60293;DHT22;52402;52.670;6.750;2024-02-16T05:40:57;10.80;99.90
60293;DHT22;52402;52.670;6.750;2024-02-16T05:43:23;10.80;99.90
60293;DHT22;52402;52.670;6.750;2024-02-16T05:45:49;10.80;99.90
60293;DHT22;52402;52.670;6.750;2024-02-16T05:48:15;10.90;99.90
60293;DHT22;52402;52.670;6.750;2024-02-16T05:50:41;10.80;99.90
60293;DHT22;52402;52.670;6.750;2024-02-16T05:53:07;10.90;99.90
60293;DHT22;52402;52.670;6.750;2024-02-16T05:55:36;11.00;99.90
60293;DHT22;52402;52.670;6.750;2024-02-16T05:58:01;11.00;99.90
60293;DHT22;52402;52.670;6.750;2024-02-16T06:00:27;11.00;99.90
60293;DHT22;52402;52.670;6.750;2024-02-16T06:02:53;11.00;99.90
60293;DHT22;52402;52.670;6.750;2024-02-16T06:05:20;11.10;99.90
60293;DHT22;52402;52.670;6.750;2024-02-16T06:07:45;11.10;99.90
60293;DHT22;52402;52.670;6.750;2024-02-16T06:10:11;11.10;99.90
60293;DHT22;52402;52.670;6.750;2024-02-16T06:12:37;11.20;99.90
60293;DHT22;52402;52.670;6.750;2024-02-16T06:15:04;11.20;99.90
60293;DHT22;52402;52.670;6.750;2024-02-16T06:17:30;11.20;99.90
60293;DHT22;52402;52.670;6.750;2024-02-16T06:19:56;11.20;99.90
60293;DHT22;52402;52.670;6.750;2024-02-16T06:22:21;11.10;99.90
60293;DHT22;52402;52.670;6.750;2024-02-16T06:24:47;11.10;99.90
60293;DHT22;52402;52.670;6.750;2024-02-16T06:27:13;11.10;99.90
60293;DHT22;52402;52.670;6.750;2024-02-16T06:29:40;11.10;99.90
60293;DHT22;52402;52.670;6.750;2024-02-16T06:32:05;11.00;99.90
60293;DHT22;52402;52.670;6.750;2024-02-16T06:34:31;11.00;99.90
60293;DHT22;52402;52.670;6.750;2024-02-16T06:36:57;11.00;99.90
60293;DHT22;52402;52.670;6.750;2024-02-16T06:39:23;11.00;99.90
60293;DHT22;52402;52.670;6.750;2024-02-16T06:41:49;11.00;99.90
60293;DHT22;52402;52.670;6.750;2024-02-16T06:44:15;11.00;99.90
60293;DHT22;52402;52.670;6.750;2024-02-16T06:46:42;11.10;99.90
60293;DHT22;52402;52.670;6.750;2024-02-16T06:49:08;11.10;99.90
60293;DHT22;52402;52.670;6.750;2024-02-16T06:51:33;11.20;99.90
60293;DHT22;52402;52.670;6.750;2024-02-16T06:53:59;11.10;99.90
60293;DHT22;52402;52.670;6.750;2024-02-16T06:56:26;11.10;99.90
60293;DHT22;52402;52.670;6.750;2024-02-16T06:58:51;11.20;99.90
60293;DHT22;52402;52.670;6.750;2024-02-16T07:01:17;11.10;99.90
60293;DHT22;52402;52.670;6.750;2024-02-16T07:03:46;11.10;99.90
60293;DHT22;52402;52.670;6.750;2024-02-16T07:06:12;11.20;99.90
60293;DHT22;52402;52.670;6.750;2024-02-16T07:08:43;11.10;99.90
60293;DHT22;52402;52.670;6.750;2024-02-16T07:11:09;11.20;99.90
60293;DHT22;52402;52.670;6.750;2024-02-16T07:13:41;11.20;99.90
60293;DHT22;52402;52.670;6.750;2024-02-16T07:16:08;11.20;99.90
60293;DHT22;52402;52.670;6.750;2024-02-16T07:18:34;11.30;99.90
60293;DHT22;52402;52.670;6.750;2024-02-16T07:21:03;11.30;99.90
60293;DHT22;52402;52.670;6.750;2024-02-16T07:23:30;11.40;99.90
60293;DHT22;52402;52.670;6.750;2024-02-16T07:25:56;11.30;99.90
60293;DHT22;52402;52.670;6.750;2024-02-16T07:28:26;11.40;99.90
60293;DHT22;52402;52.670;6.750;2024-02-16T07:30:52;11.40;99.90
60293;DHT22;52402;52.670;6.750;2024-02-16T07:33:19;11.40;99.90
60293;DHT22;52402;52.670;6.750;2024-02-16T07:35:45;11.40;99.90
60293;DHT22;52402;52.670;6.750;2024-02-16T07:38:11;11.50;99.90
60293;DHT22;52402;52.670;6.750;2024-02-16T07:40:36;11.40;99.90
60293;DHT22;52402;52.670;6.750;2024-02-16T07:43:02;11.50;99.90
60293;DHT22;52402;52.670;6.750;2024-02-16T07:45:31;11.50;99.90
60293;DHT22;52402;52.670;6.750;2024-02-16T07:47:57;11.60;99.90
60293;DHT22;52402;52.670;6.750;2024-02-16T07:50:23;11.60;99.90
60293;DHT22;52402;52.670;6.750;2024-02-16T07:52:49;11.60;99.90
60293;DHT22;52402;52.670;6.750;2024-02-16T07:55:16;11.60;99.90
60293;DHT22;52402;52.670;6.750;2024-02-16T07:57:46;11.60;99.90
60293;DHT22;52402;52.670;6.750;2024-02-16T08:00:13;11.60;99.90
60293;DHT22;52402;52.670;6.750;2024-02-16T08:02:41;11.60;99.90
60293;DHT22;52402;52.670;6.750;2024-02-16T08:05:10;11.60;99.90
60293;DHT22;52402;52.670;6.750;2024-02-16T08:07:41;11.70;99.90
60293;DHT22;52402;52.670;6.750;2024-02-16T08:10:08;11.70;99.90
60293;DHT22;52402;52.670;6.750;2024-02-16T08:12:34;11.60;99.90
60293;DHT22;52402;52.670;6.750;2024-02-16T08:15:02;11.60;99.90
60293;DHT22;52402;52.670;6.750;2024-02-16T08:17:29;11.70;99.90
60293;DHT22;52402;52.670;6.750;2024-02-16T08:19:56;11.70;99.90
60293;DHT22;52402;52.670;6.750;2024-02-16T08:22:22;11.70;99.90
60293;DHT22;52402;52.670;6.750;2024-02-16T08:24:48;11.70;99.90
60293;DHT22;52402;52.670;6.750;2024-02-16T08:27:15;11.70;99.90
60293;DHT22;52402;52.670;6.750;2024-02-16T08:29:41;11.80;99.90
60293;DHT22;52402;52.670;6.750;2024-02-16T08:32:07;11.80;99.90
60293;DHT22;52402;52.670;6.750;2024-02-16T08:34:34;11.90;99.90
60293;DHT22;52402;52.670;6.750;2024-02-16T08:37:03;11.80;99.90
60293;DHT22;52402;52.670;6.750;2024-02-16T08:39:29;11.80;99.90
60293;DHT22;52402;52.670;6.750;2024-02-16T08:41:56;11.80;99.90
60293;DHT22;52402;52.670;6.750;2024-02-16T08:44:22;11.90;99.90
60293;DHT22;52402;52.670;6.750;2024-02-16T08:46:47;11.90;99.90
60293;DHT22;52402;52.670;6.750;2024-02-16T08:49:15;11.90;99.90
60293;DHT22;52402;52.670;6.750;2024-02-16T08:51:41;12.00;99.90
60293;DHT22;52402;52.670;6.750;2024-02-16T08:54:06;12.00;99.90
60293;DHT22;52402;52.670;6.750;2024-02-16T08:56:34;12.00;99.90
60293;DHT22;52402;52.670;6.750;2024-02-16T08:59:02;12.10;99.90
60293;DHT22;52402;52.670;6.750;2024-02-16T09:01:31;12.10;99.90
60293;DHT22;52402;52.670;6.750;2024-02-16T09:03:57;12.10;99.90
60293;DHT22;52402;52.670;6.750;2024-02-16T09:06:22;12.10;99.90
60293;DHT22;52402;52.670;6.750;2024-02-16T09:08:48;12.10;99.90
60293;DHT22;52402;52.670;6.750;2024-02-16T09:11:14;12.20;99.90
60293;DHT22;52402;52.670;6.750;2024-02-16T09:13:40;12.20;99.90
60293;DHT22;52402;52.670;6.750;2024-02-16T09:16:07;12.30;99.90
60293;DHT22;52402;52.670;6.750;2024-02-16T09:18:33;12.30;99.90
60293;DHT22;52402;52.670;6.750;2024-02-16T09:20:59;12.40;99.90
60293;DHT22;52402;52.670;6.750;2024-02-16T09:23:26;12.40;99.90
60293;DHT22;52402;52.670;6.750;2024-02-16T09:25:51;12.50;99.90
60293;DHT22;52402;52.670;6.750;2024-02-16T09:28:17;12.60;99.90
60293;DHT22;52402;52.670;6.750;2024-02-16T09:30:46;12.70;99.90
60293;DHT22;52402;52.670;6.750;2024-02-16T09:33:12;12.80;99.90
60293;DHT22;52402;52.670;6.750;2024-02-16T09:35:39;12.80;99.90
60293;DHT22;52402;52.670;6.750;2024-02-16T09:38:05;12.90;99.90
60293;DHT22;52402;52.670;6.750;2024-02-16T09:40:30;13.00;99.90
60293;DHT22;52402;52.670;6.750;2024-02-16T09:42:56;13.00;99.90
60293;DHT22;52402;52.670;6.750;2024-02-16T09:45:22;13.10;99.90
60293;DHT22;52402;52.670;6.750;2024-02-16T09:47:50;13.10;99.90
60293;DHT22;52402;52.670;6.750;2024-02-16T09:50:17;13.10;99.90
60293;DHT22;52402;52.670;6.750;2024-02-16T09:52:50;13.10;99.90
60293;DHT22;52402;52.670;6.750;2024-02-16T09:55:17;13.10;99.90
60293;DHT22;52402;52.670;6.750;2024-02-16T09:57:44;13.20;99.90
60293;DHT22;52402;52.670;6.750;2024-02-16T10:00:10;13.20;99.90
60293;DHT22;52402;52.670;6.750;2024-02-16T10:02:43;13.20;99.90
60293;DHT22;52402;52.670;6.750;2024-02-16T10:05:14;13.30;99.90
60293;DHT22;52402;52.670;6.750;2024-02-16T10:07:41;13.30;99.90
60293;DHT22;52402;52.670;6.750;2024-02-16T10:10:19;13.30;99.90
60293;DHT22;52402;52.670;6.750;2024-02-16T10:12:45;13.30;99.90
60293;DHT22;52402;52.670;6.750;2024-02-16T10:15:11;13.30;99.90
60293;DHT22;52402;52.670;6.750;2024-02-16T10:17:37;13.40;99.90
60293;DHT22;52402;52.670;6.750;2024-02-16T10:20:02;13.40;99.90
60293;DHT22;52402;52.670;6.750;2024-02-16T10:22:32;13.40;99.90
60293;DHT22;52402;52.670;6.750;2024-02-16T10:25:07;13.50;99.90
60293;DHT22;52402;52.670;6.750;2024-02-16T10:27:37;13.50;99.90
60293;DHT22;52402;52.670;6.750;2024-02-16T10:30:04;13.60;99.90
60293;DHT22;52402;52.670;6.750;2024-02-16T10:32:38;13.80;99.90
60293;DHT22;52402;52.670;6.750;2024-02-16T10:35:07;13.80;99.90
60293;DHT22;52402;52.670;6.750;2024-02-16T10:37:34;14.00;99.90
60293;DHT22;52402;52.670;6.750;2024-02-16T10:40:01;14.10;99.90
60293;DHT22;52402;52.670;6.750;2024-02-16T10:42:31;14.10;99.90
60293;DHT22;52402;52.670;6.750;2024-02-16T10:44:59;14.30;99.90
60293;DHT22;52402;52.670;6.750;2024-02-16T10:47:25;14.30;99.90
60293;DHT22;52402;52.670;6.750;2024-02-16T10:49:51;14.20;99.90
60293;DHT22;52402;52.670;6.750;2024-02-16T10:52:17;14.20;99.90
60293;DHT22;52402;52.670;6.750;2024-02-16T10:54:45;14.10;99.90
60293;DHT22;52402;52.670;6.750;2024-02-16T10:57:11;14.00;99.90
60293;DHT22;52402;52.670;6.750;2024-02-16T10:59:43;13.90;99.90
60293;DHT22;52402;52.670;6.750;2024-02-16T11:02:10;13.80;99.90
60293;DHT22;52402;52.670;6.750;2024-02-16T11:04:39;13.70;99.90
60293;DHT22;52402;52.670;6.750;2024-02-16T11:07:19;13.50;99.90
60293;DHT22;52402;52.670;6.750;2024-02-16T11:09:45;13.50;99.90
60293;DHT22;52402;52.670;6.750;2024-02-16T11:12:13;13.50;99.90
60293;DHT22;52402;52.670;6.750;2024-02-16T11:14:45;13.40;99.90
60293;DHT22;52402;52.670;6.750;2024-02-16T11:17:22;13.40;99.90
60293;DHT22;52402;52.670;6.750;2024-02-16T11:19:48;13.40;99.90
60293;DHT22;52402;52.670;6.750;2024-02-16T11:22:27;13.40;99.90
60293;DHT22;52402;52.670;6.750;2024-02-16T11:24:54;13.30;99.90
60293;DHT22;52402;52.670;6.750;2024-02-16T11:27:20;13.30;99.90
60293;DHT22;52402;52.670;6.750;2024-02-16T11:29:47;13.30;99.90
60293;DHT22;52402;52.670;6.750;2024-02-16T11:32:15;13.20;99.90
60293;DHT22;52402;52.670;6.750;2024-02-16T11:34:41;13.20;99.90
60293;DHT22;52402;52.670;6.750;2024-02-16T11:37:07;13.20;99.90
60293;DHT22;52402;52.670;6.750;2024-02-16T11:39:33;13.10;99.90
60293;DHT22;52402;52.670;6.750;2024-02-16T11:42:09;13.10;99.90
60293;DHT22;52402;52.670;6.750;2024-02-16T11:44:39;13.10;99.90
60293;DHT22;52402;52.670;6.750;2024-02-16T11:47:09;13.10;99.90
60293;DHT22;52402;52.670;6.750;2024-02-16T11:49:38;13.00;99.90
60293;DHT22;52402;52.670;6.750;2024-02-16T11:52:05;13.00;99.90
60293;DHT22;52402;52.670;6.750;2024-02-16T11:54:31;13.00;99.90
60293;DHT22;52402;52.670;6.750;2024-02-16T11:56:57;13.00;99.90
60293;DHT22;52402;52.670;6.750;2024-02-16T11:59:23;12.90;99.90
60293;DHT22;52402;52.670;6.750;2024-02-16T12:01:57;12.80;99.90
60293;DHT22;52402;52.670;6.750;2024-02-16T12:04:25;12.80;99.90
60293;DHT22;52402;52.670;6.750;2024-02-16T12:07:02;12.70;99.90
60293;DHT22;52402;52.670;6.750;2024-02-16T12:09:28;12.60;99.90
60293;DHT22;52402;52.670;6.750;2024-02-16T12:11:55;12.60;99.90
60293;DHT22;52402;52.670;6.750;2024-02-16T12:14:22;12.50;99.90
60293;DHT22;52402;52.670;6.750;2024-02-16T12:17:07;12.40;99.90
60293;DHT22;52402;52.670;6.750;2024-02-16T12:19:32;12.30;99.90
60293;DHT22;52402;52.670;6.750;2024-02-16T12:21:58;12.30;99.90
60293;DHT22;52402;52.670;6.750;2024-02-16T12:24:24;12.30;99.90
60293;DHT22;52402;52.670;6.750;2024-02-16T12:26:50;12.20;99.90
60293;DHT22;52402;52.670;6.750;2024-02-16T12:29:20;12.20;99.90
60293;DHT22;52402;52.670;6.750;2024-02-16T12:31:46;12.20;99.90
60293;DHT22;52402;52.670;6.750;2024-02-16T12:34:14;12.10;99.90
60293;DHT22;52402;52.670;6.750;2024-02-16T12:36:40;12.10;99.90
60293;DHT22;52402;52.670;6.750;2024-02-16T12:39:06;12.10;99.90
60293;DHT22;52402;52.670;6.750;2024-02-16T12:41:34;12.10;99.90
60293;DHT22;52402;52.670;6.750;2024-02-16T12:44:00;12.10;99.90
60293;DHT22;52402;52.670;6.750;2024-02-16T12:46:25;12.10;99.90
60293;DHT22;52402;52.670;6.750;2024-02-16T12:48:51;12.10;99.90
60293;DHT22;52402;52.670;6.750;2024-02-16T12:51:18;12.10;99.90
60293;DHT22;52402;52.670;6.750;2024-02-16T12:53:44;12.10;99.90
60293;DHT22;52402;52.670;6.750;2024-02-16T12:56:10;12.10;99.90
60293;DHT22;52402;52.670;6.750;2024-02-16T12:58:36;12.10;99.90
60293;DHT22;52402;52.670;6.750;2024-02-16T13:01:03;12.10;99.90
60293;DHT22;52402;52.670;6.750;2024-02-16T13:03:28;12.10;99.90
60293;DHT22;52402;52.670;6.750;2024-02-16T13:05:54;12.10;99.90
60293;DHT22;52402;52.670;6.750;2024-02-16T13:08:19;12.10;99.90
60293;DHT22;52402;52.670;6.750;2024-02-16T13:10:45;12.10;99.90
60293;DHT22;52402;52.670;6.750;2024-02-16T13:13:11;12.10;99.90
60293;DHT22;52402;52.670;6.750;2024-02-16T13:15:36;12.10;99.90
60293;DHT22;52402;52.670;6.750;2024-02-16T13:18:02;12.10;99.90
60293;DHT22;52402;52.670;6.750;2024-02-16T13:20:28;12.00;99.90
60293;DHT22;52402;52.670;6.750;2024-02-16T13:22:53;12.00;99.90
60293;DHT22;52402;52.670;6.750;2024-02-16T13:25:19;11.90;99.90
60293;DHT22;52402;52.670;6.750;2024-02-16T13:27:46;11.90;99.90
60293;DHT22;52402;52.670;6.750;2024-02-16T13:30:12;11.90;99.90
60293;DHT22;52402;52.670;6.750;2024-02-16T13:32:38;11.90;99.90
60293;DHT22;52402;52.670;6.750;2024-02-16T13:35:08;11.90;99.90
60293;DHT22;52402;52.670;6.750;2024-02-16T13:37:34;11.80;99.90
60293;DHT22;52402;52.670;6.750;2024-02-16T13:39:59;11.80;99.90
60293;DHT22;52402;52.670;6.750;2024-02-16T13:42:28;11.80;99.90
60293;DHT22;52402;52.670;6.750;2024-02-16T13:44:54;11.70;99.90
60293;DHT22;52402;52.670;6.750;2024-02-16T13:47:19;11.70;99.90
60293;DHT22;52402;52.670;6.750;2024-02-16T13:49:45;11.60;99.90
60293;DHT22;52402;52.670;6.750;2024-02-16T13:52:12;11.60;99.90
60293;DHT22;52402;52.670;6.750;2024-02-16T13:54:38;11.60;99.90
60293;DHT22;52402;52.670;6.750;2024-02-16T13:57:04;11.70;99.90
60293;DHT22;52402;52.670;6.750;2024-02-16T13:59:29;11.60;99.90
60293;DHT22;52402;52.670;6.750;2024-02-16T14:01:59;11.60;99.90
60293;DHT22;52402;52.670;6.750;2024-02-16T14:04:28;11.70;99.90
60293;DHT22;52402;52.670;6.750;2024-02-16T14:06:54;11.70;99.90
60293;DHT22;52402;52.670;6.750;2024-02-16T14:09:20;11.60;99.90
60293;DHT22;52402;52.670;6.750;2024-02-16T14:11:46;11.60;99.90
60293;DHT22;52402;52.670;6.750;2024-02-16T14:14:12;11.60;99.90
60293;DHT22;52402;52.670;6.750;2024-02-16T14:16:38;11.60;99.90
60293;DHT22;52402;52.670;6.750;2024-02-16T14:19:03;11.60;99.90
60293;DHT22;52402;52.670;6.750;2024-02-16T14:21:29;11.60;99.90
60293;DHT22;52402;52.670;6.750;2024-02-16T14:23:55;11.60;99.90
60293;DHT22;52402;52.670;6.750;2024-02-16T14:26:20;11.60;99.90
60293;DHT22;52402;52.670;6.750;2024-02-16T14:28:46;11.60;99.90
60293;DHT22;52402;52.670;6.750;2024-02-16T14:31:12;11.50;99.90
60293;DHT22;52402;52.670;6.750;2024-02-16T14:33:42;11.50;99.90
60293;DHT22;52402;52.670;6.750;2024-02-16T14:36:09;11.50;99.90
60293;DHT22;52402;52.670;6.750;2024-02-16T14:38:35;11.50;99.90
60293;DHT22;52402;52.670;6.750;2024-02-16T14:41:01;11.50;99.90
60293;DHT22;52402;52.670;6.750;2024-02-16T14:43:31;11.50;99.90
60293;DHT22;52402;52.670;6.750;2024-02-16T14:45:57;11.50;99.90
60293;DHT22;52402;52.670;6.750;2024-02-16T14:48:23;11.60;99.90
60293;DHT22;52402;52.670;6.750;2024-02-16T14:50:51;11.60;99.90
60293;DHT22;52402;52.670;6.750;2024-02-16T14:53:21;11.50;99.90
60293;DHT22;52402;52.670;6.750;2024-02-16T14:55:47;11.60;99.90
60293;DHT22;52402;52.670;6.750;2024-02-16T14:58:13;11.50;99.90
60293;DHT22;52402;52.670;6.750;2024-02-16T15:00:39;11.50;99.90
60293;DHT22;52402;52.670;6.750;2024-02-16T15:03:04;11.50;99.90
60293;DHT22;52402;52.670;6.750;2024-02-16T15:05:30;11.50;99.90
60293;DHT22;52402;52.670;6.750;2024-02-16T15:07:56;11.50;99.90
60293;DHT22;52402;52.670;6.750;2024-02-16T15:10:22;11.50;99.90
60293;DHT22;52402;52.670;6.750;2024-02-16T15:12:48;11.50;99.90
60293;DHT22;52402;52.670;6.750;2024-02-16T15:15:14;11.50;99.90
60293;DHT22;52402;52.670;6.750;2024-02-16T15:17:40;11.50;99.90
60293;DHT22;52402;52.670;6.750;2024-02-16T15:20:06;11.40;99.90
60293;DHT22;52402;52.670;6.750;2024-02-16T15:22:33;11.40;99.90
60293;DHT22;52402;52.670;6.750;2024-02-16T15:24:59;11.40;99.90
60293;DHT22;52402;52.670;6.750;2024-02-16T15:27:24;11.40;99.90